首页
METAR-TAF:

METAR-TAF

机场 :

上海浦东国际机场

上海 / 浦东, 中华人民共和国

纬度: 31-07N, 经度: 121-46E, 海拔: 4米

当前天气观测

该预报发布于42分钟前的14:30 UTC
风速6节,风向北转东北
温度 18°C
湿度 83%
气压 1021 hPa
能見度: 6000
多云层高于4000英尺

METAR: ZSPD 231430Z 02003MPS 6000 BKN040 18/15 Q1021 NOSIG

时间: 23:12 (15:12 UTC)

预报

该预报发布于5小时和47分钟前的09:25 UTC
预报有效从23日的 12点(UTC)到 24日的 12点(UTC)
风速8节,风向北转东北
能見度: 5000
散云层高于2000英尺
成为
从 23日的 22点(UTC)到 23日的 24点(UTC)
风速8节,风向

TAF: ZSPD 230925Z 2312/2412 03004MPS 5000 HZ SCT020 TX23/2406Z TN15/2321Z BECMG 2322/2324 09004MPS

超过4000个机场的气象观测和天气预报(METAR&TAF报告)。

可查询的气象台以黄色和红色小点在地图上表示。

将鼠标移到小点上方,可查看气象台名称。

然后点击查看天气观测和预报。

如需切换地图:点击带黑十字的绿色按钮放大地图;点击带横线的绿色按钮缩小地图;或者点击绿色箭头查看邻近地区的地图。


METAR-TAF: